createdAt,value
2022-12-17T00:01:07.259Z,4.65
2022-12-17T00:06:47.267Z,3.85
2022-12-17T00:12:27.168Z,4.75
2022-12-17T00:18:07.413Z,3.42
2022-12-17T00:23:48.088Z,4.65
2022-12-17T00:29:28.796Z,3.63
2022-12-17T00:35:09.363Z,3.65
2022-12-17T00:40:50.182Z,3.53
2022-12-17T00:46:30.384Z,2.90
2022-12-17T00:52:11.004Z,4.35
2022-12-17T00:57:50.978Z,6.13
2022-12-17T01:03:32.409Z,3.85
2022-12-17T01:09:12.348Z,6.72
2022-12-17T01:14:52.517Z,4.55
2022-12-17T01:20:43.598Z,4.25
2022-12-17T01:26:24.021Z,5.05
2022-12-17T01:32:04.499Z,7.40
2022-12-17T01:37:45.101Z,3.95
2022-12-17T01:43:31.098Z,4.03
2022-12-17T01:49:11.269Z,3.90
2022-12-17T01:54:51.672Z,4.05
2022-12-17T02:00:34.204Z,4.25
2022-12-17T02:06:49.780Z,4.15
2022-12-17T02:12:43.723Z,4.20
2022-12-17T02:18:29.769Z,4.28
2022-12-17T02:24:23.597Z,4.80
2022-12-17T02:30:08.505Z,5.97
2022-12-17T02:36:01.137Z,4.57
2022-12-17T02:42:00.024Z,4.18
2022-12-17T02:47:42.585Z,4.57
2022-12-17T02:53:26.079Z,4.07
2022-12-17T02:59:06.023Z,4.47
2022-12-17T03:04:45.956Z,4.32
2022-12-17T03:10:26.837Z,4.80
2022-12-17T03:16:06.811Z,5.45
2022-12-17T03:21:46.780Z,3.55
2022-12-17T03:27:27.201Z,3.65
2022-12-17T03:33:07.661Z,4.13
2022-12-17T03:38:48.482Z,4.05
2022-12-17T03:44:28.766Z,4.20
2022-12-17T03:50:08.890Z,3.53
2022-12-17T03:55:49.451Z,4.25
2022-12-17T04:01:29.556Z,4.57
2022-12-17T04:07:10.320Z,4.07
2022-12-17T04:12:50.383Z,3.50
2022-12-17T04:18:30.860Z,4.93
2022-12-17T04:24:11.345Z,4.32
2022-12-17T04:29:51.620Z,4.13
2022-12-17T04:35:31.924Z,4.53
2022-12-17T04:41:12.088Z,4.22
2022-12-17T04:46:52.568Z,4.30
2022-12-17T04:52:33.145Z,3.95
2022-12-17T04:58:13.459Z,5.10
2022-12-17T05:03:53.647Z,4.03
2022-12-17T05:09:33.643Z,4.53
2022-12-17T05:15:13.593Z,4.65
2022-12-17T05:20:54.210Z,3.92
2022-12-17T05:26:40.203Z,4.93
2022-12-17T05:32:20.389Z,4.60
2022-12-17T05:38:00.528Z,3.63
2022-12-17T05:43:41.059Z,4.60
2022-12-17T05:49:21.631Z,6.18
2022-12-17T05:55:02.155Z,5.10
2022-12-17T06:00:43.093Z,3.60
2022-12-17T06:06:23.441Z,3.75
2022-12-17T06:12:03.870Z,4.65
2022-12-17T06:17:44.226Z,4.72
2022-12-17T06:23:27.875Z,4.30
2022-12-17T06:29:08.465Z,4.95
2022-12-17T06:34:48.830Z,3.40
2022-12-17T06:40:29.928Z,4.95
2022-12-17T06:46:10.927Z,4.43
2022-12-17T06:51:50.920Z,3.42
2022-12-17T06:57:31.167Z,4.05
2022-12-17T07:03:15.321Z,5.07
2022-12-17T07:08:55.404Z,4.15
2022-12-17T07:14:37.445Z,4.05
2022-12-17T07:20:17.661Z,4.25
2022-12-17T07:25:58.639Z,3.90
2022-12-17T07:31:39.018Z,4.97
2022-12-17T07:37:20.747Z,4.03
2022-12-17T07:43:01.411Z,3.22
2022-12-17T07:48:41.806Z,3.25
2022-12-17T07:54:22.287Z,3.75
2022-12-17T08:00:02.749Z,3.65
2022-12-17T08:05:43.328Z,3.55
2022-12-17T08:11:24.160Z,3.00
2022-12-17T08:17:04.835Z,3.45
2022-12-17T08:22:44.909Z,4.03
2022-12-17T08:28:49.488Z,2.95
2022-12-17T08:34:25.710Z,4.38
2022-12-17T08:40:05.732Z,2.70
2022-12-17T08:45:45.920Z,2.60
2022-12-17T08:51:25.977Z,9.48
2022-12-17T08:57:05.919Z,9.68
2022-12-17T09:02:45.952Z,9.45
2022-12-17T09:08:26.403Z,14.00
2022-12-17T09:14:17.065Z,15.90
2022-12-17T09:20:08.083Z,17.30
2022-12-17T09:25:49.233Z,16.10
2022-12-17T09:31:37.075Z,15.57
2022-12-17T09:37:18.051Z,15.73
2022-12-17T09:43:08.671Z,12.00
2022-12-17T09:48:58.871Z,11.02
2022-12-17T09:54:59.295Z,11.38
2022-12-17T10:00:44.795Z,14.07
2022-12-17T10:06:31.931Z,13.45
2022-12-17T10:12:12.534Z,14.23
2022-12-17T10:17:52.713Z,10.02
2022-12-17T10:23:47.584Z,11.02
2022-12-17T10:29:50.338Z,12.45
2022-12-17T10:35:39.534Z,13.60
2022-12-17T10:41:21.115Z,10.73
2022-12-17T10:47:01.637Z,12.57
2022-12-17T10:52:50.646Z,13.55
2022-12-17T10:58:34.525Z,13.68
2022-12-17T11:04:16.555Z,8.88
2022-12-17T11:10:10.431Z,12.98
2022-12-17T11:16:03.031Z,11.10
2022-12-17T11:21:54.620Z,11.88
2022-12-17T11:27:43.845Z,20.70
2022-12-17T11:33:33.532Z,13.32
2022-12-17T11:39:34.780Z,17.63
2022-12-17T11:45:45.802Z,15.60
2022-12-17T11:51:35.313Z,26.60
2022-12-17T11:57:15.353Z,18.95
2022-12-17T12:03:04.744Z,17.48
2022-12-17T12:08:52.502Z,22.88
2022-12-17T12:14:54.094Z,20.13
2022-12-17T12:20:58.192Z,28.83
2022-12-17T12:26:48.622Z,15.75
2022-12-17T12:32:48.442Z,23.35
2022-12-17T12:38:46.392Z,25.08
2022-12-17T12:45:04.312Z,17.92
2022-12-17T12:51:00.654Z,16.20
2022-12-17T12:56:55.760Z,12.67
2022-12-17T13:02:38.852Z,14.23
2022-12-17T13:08:21.230Z,8.98
2022-12-17T13:13:56.232Z,12.20
2022-12-17T13:19:32.378Z,8.63
2022-12-17T13:24:57.927Z,12.50
2022-12-17T13:36:13.563Z,6.78
2022-12-17T13:41:36.165Z,10.82
2022-12-17T13:46:57.938Z,12.60
2022-12-17T13:52:22.266Z,17.88
2022-12-17T13:57:48.506Z,13.65
2022-12-17T14:03:12.263Z,25.73
2022-12-17T14:08:35.434Z,13.07
2022-12-17T14:13:57.923Z,22.88
2022-12-17T14:19:19.717Z,14.52
2022-12-17T14:24:41.618Z,18.15
2022-12-17T14:30:21.284Z,20.52
2022-12-17T14:35:51.491Z,20.90
2022-12-17T14:41:33.758Z,15.60
2022-12-17T14:47:17.766Z,22.33
2022-12-17T14:52:47.643Z,15.25
2022-12-17T14:58:16.619Z,25.38
2022-12-17T15:03:41.303Z,22.77
2022-12-17T15:09:04.938Z,24.57
2022-12-17T15:14:26.670Z,18.05
2022-12-17T15:19:55.611Z,26.05
2022-12-17T15:25:19.999Z,22.20
2022-12-17T15:30:41.799Z,28.45
2022-12-17T15:36:03.869Z,26.73
2022-12-17T15:41:44.656Z,23.50
2022-12-17T15:47:06.438Z,25.77
2022-12-17T15:52:28.474Z,28.55
2022-12-17T15:57:50.187Z,29.58
2022-12-17T16:03:12.026Z,17.20
2022-12-17T16:08:34.033Z,28.13
2022-12-17T16:13:56.239Z,17.00
2022-12-17T16:19:18.581Z,17.38
2022-12-17T16:24:41.093Z,19.70
2022-12-17T16:30:03.808Z,13.80
2022-12-17T16:35:26.703Z,21.48
2022-12-17T16:40:48.499Z,16.30
2022-12-17T16:46:33.549Z,22.27
2022-12-17T16:51:57.783Z,15.80
2022-12-17T16:57:19.663Z,16.55
2022-12-17T17:02:41.872Z,19.77
2022-12-17T17:08:04.580Z,24.45
2022-12-17T17:13:26.250Z,23.42
2022-12-17T17:18:48.458Z,14.60
2022-12-17T17:24:16.932Z,17.50
2022-12-17T17:29:41.915Z,22.25
2022-12-17T17:35:04.039Z,20.67
2022-12-17T17:40:26.112Z,20.85
2022-12-17T17:45:48.497Z,13.13
2022-12-17T17:51:29.470Z,12.68
2022-12-17T17:57:01.206Z,18.20
2022-12-17T18:02:23.078Z,10.15
2022-12-17T18:07:45.021Z,8.57
2022-12-17T18:13:25.084Z,9.45
2022-12-17T18:18:47.021Z,10.68
2022-12-17T18:24:15.215Z,9.60
2022-12-17T18:29:37.049Z,12.20
2022-12-17T18:34:58.760Z,24.58
2022-12-17T18:40:20.461Z,18.85
2022-12-17T18:45:45.108Z,22.50
2022-12-17T18:51:07.365Z,20.17
2022-12-17T18:56:59.627Z,19.85
2022-12-17T19:02:13.172Z,21.50
2022-12-17T19:07:34.961Z,13.90
2022-12-17T19:12:56.747Z,14.60
2022-12-17T19:18:18.579Z,25.15
2022-12-17T19:23:40.685Z,13.85
2022-12-17T19:29:02.889Z,11.43
2022-12-17T19:34:24.575Z,10.55
2022-12-17T19:39:46.289Z,6.10
2022-12-17T19:45:08.525Z,6.72
2022-12-17T19:50:30.262Z,9.90
2022-12-17T19:55:51.993Z,10.10
2022-12-17T20:01:20.259Z,12.77
2022-12-17T20:06:43.038Z,10.20
2022-12-17T20:12:04.885Z,5.88
2022-12-17T20:17:26.650Z,14.65
2022-12-17T20:22:48.338Z,16.45
2022-12-17T20:28:10.102Z,20.75
2022-12-17T20:33:32.357Z,19.30
2022-12-17T20:38:54.070Z,18.13
2022-12-17T20:44:15.818Z,18.63
2022-12-17T20:49:37.503Z,14.95
2022-12-17T20:54:59.158Z,17.75
2022-12-17T21:00:20.892Z,20.67
2022-12-17T21:05:42.629Z,30.13
2022-12-17T21:11:05.777Z,37.70
2022-12-17T21:16:30.675Z,29.05
2022-12-17T21:21:52.380Z,34.53
2022-12-17T21:27:15.044Z,26.50
2022-12-17T21:32:37.055Z,26.88
2022-12-17T21:37:58.781Z,30.98
2022-12-17T21:43:20.583Z,33.80
2022-12-17T21:48:42.988Z,27.88
2022-12-17T21:54:08.969Z,17.85
2022-12-17T21:59:31.301Z,15.05
2022-12-17T22:04:53.042Z,18.17
2022-12-17T22:10:36.257Z,17.45
2022-12-17T22:15:56.829Z,11.05
2022-12-17T22:21:20.369Z,17.58
2022-12-17T22:26:42.497Z,28.25
2022-12-17T22:32:23.075Z,20.15
2022-12-17T22:41:42.073Z,24.73
2022-12-17T22:44:42.469Z,15.20
2022-12-17T22:49:11.865Z,14.38
2022-12-17T22:54:33.560Z,10.73
2022-12-17T22:59:55.664Z,12.15
2022-12-17T23:05:17.421Z,10.15
2022-12-17T23:10:39.121Z,10.40
2022-12-17T23:16:00.791Z,10.65
2022-12-17T23:21:25.775Z,8.45
2022-12-17T23:26:47.415Z,12.60
2022-12-17T23:32:09.134Z,13.25
2022-12-17T23:37:33.902Z,15.68
2022-12-17T23:43:00.734Z,11.55
2022-12-17T23:48:22.420Z,7.60
2022-12-17T23:53:44.772Z,10.90
2022-12-17T23:59:06.480Z,11.30
